createdAt,value
2024-01-11T00:02:23.902Z,99.90
2024-01-11T00:04:52.355Z,99.90
2024-01-11T00:07:20.952Z,99.90
2024-01-11T00:09:49.295Z,99.90
2024-01-11T00:12:18.927Z,99.90
2024-01-11T00:14:47.320Z,99.90
2024-01-11T00:17:16.993Z,99.90
2024-01-11T00:19:45.317Z,99.90
2024-01-11T00:22:13.682Z,99.90
2024-01-11T00:24:42.533Z,99.90
2024-01-11T00:27:10.835Z,99.90
2024-01-11T00:29:41.783Z,99.90
2024-01-11T00:32:10.283Z,99.90
2024-01-11T00:34:39.173Z,99.90
2024-01-11T00:37:07.739Z,99.90
2024-01-11T00:39:36.060Z,99.90
2024-01-11T00:42:04.326Z,99.90
2024-01-11T00:44:34.065Z,99.90
2024-01-11T00:47:03.837Z,99.90
2024-01-11T00:49:32.273Z,99.90
2024-01-11T00:52:00.746Z,99.90
2024-01-11T00:54:29.090Z,99.90
2024-01-11T00:56:57.446Z,99.90
2024-01-11T00:59:25.814Z,99.90
2024-01-11T01:01:54.316Z,99.90
2024-01-11T01:04:24.001Z,99.90
2024-01-11T01:06:52.451Z,99.90
2024-01-11T01:09:20.726Z,99.90
2024-01-11T01:11:48.967Z,99.90
2024-01-11T01:14:17.423Z,99.90
2024-01-11T01:16:45.856Z,99.90
2024-01-11T01:19:14.287Z,99.90
2024-01-11T01:21:44.054Z,99.90
2024-01-11T01:24:13.215Z,99.90
2024-01-11T01:26:41.846Z,99.90
2024-01-11T01:29:10.349Z,99.90
2024-01-11T01:31:40.911Z,99.90
2024-01-11T01:34:10.092Z,99.90
2024-01-11T01:36:38.625Z,99.90
2024-01-11T01:39:08.558Z,99.90
2024-01-11T01:41:37.091Z,99.90
2024-01-11T01:44:06.126Z,99.90
2024-01-11T01:46:35.609Z,99.90
2024-01-11T01:49:06.082Z,99.90
2024-01-11T01:51:39.126Z,99.90
2024-01-11T01:54:08.907Z,99.90
2024-01-11T01:56:37.498Z,99.90
2024-01-11T01:59:06.635Z,99.90
2024-01-11T02:01:35.754Z,99.90
2024-01-11T02:04:04.656Z,99.90
2024-01-11T02:06:36.979Z,99.90
2024-01-11T02:09:05.767Z,99.90
2024-01-11T02:11:36.172Z,99.90
2024-01-11T02:14:05.358Z,99.90
2024-01-11T02:19:02.718Z,99.90
2024-01-11T02:21:33.134Z,99.90
2024-01-11T02:24:06.842Z,99.90
2024-01-11T02:26:35.631Z,99.90
2024-01-11T02:29:04.565Z,99.90
2024-01-11T02:31:33.350Z,99.90
2024-01-11T02:34:01.874Z,99.90
2024-01-11T02:36:30.315Z,99.90
2024-01-11T02:38:58.665Z,99.90
2024-01-11T02:41:29.191Z,99.90
2024-01-11T02:43:58.079Z,99.90
2024-01-11T02:46:26.419Z,99.90
2024-01-11T02:48:54.839Z,99.90
2024-01-11T02:51:23.333Z,99.90
2024-01-11T02:53:51.588Z,99.90
2024-01-11T02:56:19.979Z,99.90
2024-01-11T02:58:49.636Z,99.90
2024-01-11T03:01:18.132Z,99.90
2024-01-11T03:03:48.132Z,99.90
2024-01-11T03:06:22.587Z,99.90
2024-01-11T03:08:51.459Z,99.90
2024-01-11T03:11:19.762Z,99.90
2024-01-11T03:13:51.083Z,99.90
2024-01-11T03:16:19.307Z,99.90
2024-01-11T03:18:47.675Z,99.90
2024-01-11T03:21:16.134Z,99.90
2024-01-11T03:23:44.525Z,99.90
2024-01-11T03:26:16.674Z,99.90
2024-01-11T03:28:45.163Z,99.90
2024-01-11T03:31:14.873Z,99.90
2024-01-11T03:33:43.277Z,99.90
2024-01-11T03:36:12.974Z,99.90
2024-01-11T03:38:41.391Z,99.90
2024-01-11T03:41:12.910Z,99.90
2024-01-11T03:43:41.442Z,99.90
2024-01-11T03:46:09.825Z,99.90
2024-01-11T03:48:39.736Z,99.90
2024-01-11T03:51:08.475Z,99.90
2024-01-11T03:53:38.853Z,99.90
2024-01-11T03:56:07.809Z,99.90
2024-01-11T03:58:40.385Z,99.90
2024-01-11T04:01:11.413Z,99.90
2024-01-11T04:03:41.314Z,99.90
2024-01-11T04:06:10.420Z,99.90
2024-01-11T04:08:38.983Z,99.90
2024-01-11T04:11:07.512Z,99.90
2024-01-11T04:13:36.062Z,99.90
2024-01-11T04:16:10.226Z,99.90
2024-01-11T04:18:38.791Z,99.90
2024-01-11T04:21:08.524Z,99.90
2024-01-11T04:23:36.942Z,99.90
2024-01-11T04:26:05.518Z,99.90
2024-01-11T04:28:33.863Z,99.90
2024-01-11T04:31:02.266Z,99.90
2024-01-11T04:33:30.562Z,99.90
2024-01-11T04:35:58.907Z,99.90
2024-01-11T04:38:28.595Z,99.90
2024-01-11T04:40:57.578Z,99.90
2024-01-11T04:43:26.056Z,99.90
2024-01-11T04:45:54.404Z,99.90
2024-01-11T04:48:22.859Z,99.90
2024-01-11T04:50:51.530Z,99.90
2024-01-11T04:53:21.225Z,99.90
2024-01-11T04:55:50.972Z,99.90
2024-01-11T04:58:19.269Z,99.90
2024-01-11T05:00:47.775Z,99.90
2024-01-11T05:03:16.035Z,99.90
2024-01-11T05:05:44.495Z,99.90
2024-01-11T05:08:13.135Z,99.90
2024-01-11T05:10:41.718Z,99.90
2024-01-11T05:13:12.918Z,99.90
2024-01-11T05:15:41.311Z,99.90
2024-01-11T05:18:10.034Z,99.90
2024-01-11T05:20:38.514Z,99.90
2024-01-11T05:23:06.935Z,99.90
2024-01-11T05:25:35.710Z,99.90
2024-01-11T05:28:05.268Z,99.90
2024-01-11T05:30:35.877Z,99.90
2024-01-11T05:33:05.512Z,99.90
2024-01-11T05:35:34.524Z,99.90
2024-01-11T05:38:03.157Z,99.90
2024-01-11T05:40:31.652Z,99.90
2024-01-11T05:43:00.195Z,99.90
2024-01-11T05:45:36.174Z,99.90
2024-01-11T05:48:18.332Z,99.90
2024-01-11T05:50:46.757Z,99.90
2024-01-11T05:53:15.589Z,99.90
2024-01-11T05:55:44.069Z,99.90
2024-01-11T05:58:12.389Z,99.90
2024-01-11T06:00:41.697Z,99.90
2024-01-11T06:03:10.133Z,99.90
2024-01-11T06:05:40.095Z,99.90
2024-01-11T06:08:08.620Z,99.90
2024-01-11T06:10:37.005Z,99.90
2024-01-11T06:13:06.347Z,99.90
2024-01-11T06:15:34.730Z,99.90
2024-01-11T06:18:03.654Z,99.90
2024-01-11T06:20:32.384Z,99.90
2024-01-11T06:23:02.222Z,99.90
2024-01-11T06:25:30.524Z,99.90
2024-01-11T06:27:58.752Z,99.90
2024-01-11T06:30:27.103Z,99.90
2024-01-11T06:32:55.509Z,99.90
2024-01-11T06:35:23.925Z,99.90
2024-01-11T06:37:52.299Z,99.90
2024-01-11T06:40:22.048Z,99.90
2024-01-11T06:42:50.344Z,99.90
2024-01-11T06:45:18.643Z,99.90
2024-01-11T06:47:48.148Z,99.90
2024-01-11T06:50:16.684Z,99.90
2024-01-11T06:52:45.167Z,99.90
2024-01-11T06:55:16.524Z,99.90
2024-01-11T06:57:49.420Z,99.90
2024-01-11T07:00:17.857Z,99.90
2024-01-11T07:02:46.465Z,99.90
2024-01-11T07:05:15.150Z,99.90
2024-01-11T07:07:43.471Z,99.90
2024-01-11T07:10:13.979Z,99.90
2024-01-11T07:12:44.032Z,99.90
2024-01-11T07:15:14.148Z,99.90
2024-01-11T07:17:42.594Z,99.90
2024-01-11T07:20:12.285Z,99.90
2024-01-11T07:22:42.507Z,99.90
2024-01-11T07:25:11.252Z,99.90
2024-01-11T07:27:39.641Z,99.90
2024-01-11T07:30:09.847Z,99.90
2024-01-11T07:32:39.726Z,99.90
2024-01-11T07:35:12.152Z,99.90
2024-01-11T07:37:42.627Z,99.90
2024-01-11T07:40:12.317Z,99.90
2024-01-11T07:42:40.839Z,99.90
2024-01-11T07:45:11.316Z,99.90
2024-01-11T07:47:41.321Z,99.90
2024-01-11T07:50:11.152Z,99.90
2024-01-11T07:52:40.073Z,99.90
2024-01-11T07:55:09.419Z,99.90
2024-01-11T07:57:38.098Z,99.90
2024-01-11T08:00:08.080Z,99.90
2024-01-11T08:02:39.061Z,99.90
2024-01-11T08:05:09.705Z,99.90
2024-01-11T08:07:38.146Z,99.90
2024-01-11T08:10:08.016Z,99.90
2024-01-11T08:12:36.415Z,99.90
2024-01-11T08:15:06.448Z,99.90
2024-01-11T08:17:34.708Z,99.90
2024-01-11T08:20:03.218Z,99.90
2024-01-11T08:22:35.703Z,99.90
2024-01-11T08:25:05.708Z,99.90
2024-01-11T08:27:34.440Z,99.90
2024-01-11T08:30:03.449Z,99.90
2024-01-11T08:32:32.743Z,99.90
2024-01-11T08:35:01.809Z,99.90
2024-01-11T08:37:30.246Z,99.90
2024-01-11T08:40:00.210Z,99.90
2024-01-11T08:42:29.422Z,99.90
2024-01-11T08:44:58.800Z,99.90
2024-01-11T08:47:27.354Z,99.90
2024-01-11T08:49:57.239Z,99.90
2024-01-11T08:52:26.678Z,99.90
2024-01-11T08:54:54.959Z,99.90
2024-01-11T08:57:24.554Z,99.90
2024-01-11T08:59:52.843Z,99.90
2024-01-11T09:02:23.998Z,99.90
2024-01-11T09:04:54.367Z,99.90
2024-01-11T09:07:22.591Z,99.90
2024-01-11T09:09:56.249Z,99.90
2024-01-11T09:12:26.962Z,99.90
2024-01-11T09:14:55.863Z,99.90
2024-01-11T09:17:24.394Z,99.90
2024-01-11T09:19:53.366Z,99.90
2024-01-11T09:22:21.666Z,99.90
2024-01-11T09:24:50.017Z,99.90
2024-01-11T09:27:18.164Z,99.90
2024-01-11T09:29:48.169Z,99.90
2024-01-11T09:32:16.512Z,99.90
2024-01-11T09:34:46.902Z,99.90
2024-01-11T09:37:15.239Z,99.90
2024-01-11T09:39:45.137Z,99.90
2024-01-11T09:42:14.064Z,99.90
2024-01-11T09:44:43.763Z,99.90
2024-01-11T09:47:16.502Z,99.90
2024-01-11T09:49:46.794Z,99.90
2024-01-11T09:52:17.168Z,99.90
2024-01-11T09:54:45.410Z,99.90
2024-01-11T09:57:13.749Z,99.90
2024-01-11T09:59:43.569Z,99.90
2024-01-11T10:02:14.889Z,99.90
2024-01-11T10:04:45.316Z,99.90
2024-01-11T10:07:21.904Z,99.90
2024-01-11T10:09:50.700Z,99.90
2024-01-11T10:12:21.560Z,99.90
2024-01-11T10:14:50.032Z,99.90
2024-01-11T10:17:22.847Z,99.90
2024-01-11T10:19:52.826Z,99.90
2024-01-11T10:22:24.991Z,99.90
2024-01-11T10:25:12.214Z,99.90
2024-01-11T10:27:44.096Z,99.90
2024-01-11T10:30:14.779Z,99.90
2024-01-11T10:32:45.410Z,99.90
2024-01-11T10:35:18.016Z,99.90
2024-01-11T10:37:47.149Z,99.90
2024-01-11T10:40:17.131Z,99.90
2024-01-11T10:42:47.020Z,99.90
2024-01-11T10:45:18.802Z,99.90
2024-01-11T10:47:54.367Z,99.90
2024-01-11T10:50:25.984Z,99.90
2024-01-11T10:53:07.298Z,99.90
2024-01-11T10:55:36.850Z,99.90
2024-01-11T10:58:07.103Z,99.90
2024-01-11T11:00:37.631Z,99.90
2024-01-11T11:03:09.128Z,99.90
2024-01-11T11:05:38.866Z,99.90
2024-01-11T11:08:09.390Z,99.90
2024-01-11T11:10:38.979Z,99.90
2024-01-11T11:13:08.111Z,99.90
2024-01-11T11:15:39.022Z,99.90
2024-01-11T11:18:09.174Z,99.90
2024-01-11T11:20:43.277Z,99.90
2024-01-11T11:23:13.509Z,99.90
2024-01-11T11:25:43.664Z,99.90
2024-01-11T11:28:14.458Z,99.90
2024-01-11T11:30:44.280Z,99.90
2024-01-11T11:33:19.306Z,99.90
2024-01-11T11:35:54.014Z,99.90
2024-01-11T11:38:24.288Z,99.90
2024-01-11T11:40:58.480Z,99.90
2024-01-11T11:43:28.607Z,99.90
2024-01-11T11:45:59.680Z,99.90
2024-01-11T11:48:55.859Z,99.90
2024-01-11T11:51:27.984Z,99.90
2024-01-11T11:53:58.094Z,99.90
2024-01-11T11:56:26.820Z,99.90
2024-01-11T11:58:56.728Z,99.90
2024-01-11T12:01:24.857Z,99.90
2024-01-11T12:03:55.442Z,99.90
2024-01-11T12:06:26.347Z,99.90
2024-01-11T12:08:57.696Z,99.90
2024-01-11T12:11:27.741Z,99.90
2024-01-11T12:13:58.919Z,99.90
2024-01-11T12:16:28.619Z,99.90
2024-01-11T12:18:58.674Z,99.90
2024-01-11T12:21:28.231Z,99.90
2024-01-11T12:23:57.026Z,99.90
2024-01-11T12:26:25.464Z,99.90
2024-01-11T12:28:54.187Z,99.90
2024-01-11T12:31:24.424Z,99.60
2024-01-11T12:33:53.249Z,99.90
2024-01-11T12:36:23.190Z,99.10
2024-01-11T12:38:53.258Z,99.10
2024-01-11T12:41:41.361Z,99.60
2024-01-11T12:44:09.793Z,98.60
2024-01-11T12:46:38.090Z,97.80
2024-01-11T12:49:06.605Z,99.10
2024-01-11T12:51:38.698Z,98.20
2024-01-11T12:54:12.422Z,98.80
2024-01-11T12:56:45.969Z,99.30
2024-01-11T12:59:17.411Z,99.40
2024-01-11T13:01:45.712Z,99.70
2024-01-11T13:04:14.504Z,99.80
2024-01-11T13:06:44.307Z,99.90
2024-01-11T13:09:12.639Z,99.90
2024-01-11T13:11:42.715Z,99.90
2024-01-11T13:14:15.811Z,99.90
2024-01-11T13:16:44.468Z,99.90
2024-01-11T13:19:23.679Z,99.90
2024-01-11T13:21:58.087Z,99.90
2024-01-11T13:24:26.278Z,99.90
2024-01-11T13:26:56.775Z,99.90
2024-01-11T13:29:25.079Z,99.90
2024-01-11T13:31:53.449Z,99.90
2024-01-11T13:34:21.879Z,99.90
2024-01-11T13:36:50.328Z,99.90
2024-01-11T13:39:21.541Z,99.90
2024-01-11T13:41:49.911Z,99.90
2024-01-11T13:44:18.992Z,99.90
2024-01-11T13:46:48.009Z,99.90
2024-01-11T13:49:17.240Z,99.90
2024-01-11T13:51:53.867Z,99.90
2024-01-11T13:54:30.305Z,99.90
2024-01-11T13:56:58.878Z,99.90
2024-01-11T13:59:27.393Z,99.90
2024-01-11T14:01:55.818Z,99.90
2024-01-11T14:04:25.366Z,99.90
2024-01-11T14:06:54.136Z,99.90
2024-01-11T14:09:24.069Z,99.90
2024-01-11T14:11:54.162Z,99.90
2024-01-11T14:14:22.943Z,99.90
2024-01-11T14:16:52.447Z,99.90
2024-01-11T14:19:21.147Z,99.90
2024-01-11T14:21:50.075Z,99.90
2024-01-11T14:24:26.228Z,99.90
2024-01-11T14:26:59.480Z,99.90
2024-01-11T14:29:27.932Z,99.90
2024-01-11T14:31:56.197Z,99.90
2024-01-11T14:34:26.685Z,99.90
2024-01-11T14:36:59.923Z,99.90
2024-01-11T14:39:28.191Z,99.90
2024-01-11T14:41:56.646Z,99.90
2024-01-11T14:44:26.299Z,99.90
2024-01-11T14:46:54.732Z,99.90
2024-01-11T14:49:23.513Z,99.90
2024-01-11T14:51:52.368Z,99.90
2024-01-11T14:54:21.494Z,99.90
2024-01-11T14:56:50.101Z,99.90
2024-01-11T14:59:18.582Z,99.90
2024-01-11T15:01:50.171Z,99.90
2024-01-11T15:04:19.040Z,99.90
2024-01-11T15:06:47.499Z,99.90
2024-01-11T15:09:16.414Z,99.90
2024-01-11T15:11:45.140Z,99.90
2024-01-11T15:14:14.897Z,99.90
2024-01-11T15:16:45.619Z,99.90
2024-01-11T15:19:18.289Z,99.90
2024-01-11T15:21:49.993Z,99.90
2024-01-11T15:24:21.299Z,99.90
2024-01-11T15:26:50.642Z,99.90
2024-01-11T15:29:19.557Z,99.90
2024-01-11T15:31:49.166Z,99.90
2024-01-11T15:34:19.619Z,99.90
2024-01-11T15:36:48.488Z,99.90
2024-01-11T15:39:25.245Z,99.90
2024-01-11T15:41:58.558Z,99.90
2024-01-11T15:44:29.018Z,99.90
2024-01-11T15:46:59.229Z,99.90
2024-01-11T15:49:28.997Z,99.90
2024-01-11T15:51:57.904Z,99.90
2024-01-11T15:54:27.283Z,99.90
2024-01-11T15:56:56.292Z,99.90
2024-01-11T15:59:27.197Z,99.90
2024-01-11T16:02:03.394Z,99.90
2024-01-11T16:04:37.126Z,99.90
2024-01-11T16:07:05.935Z,99.90
2024-01-11T16:09:34.480Z,99.90
2024-01-11T16:12:05.602Z,99.90
2024-01-11T16:14:35.301Z,99.90
2024-01-11T16:17:04.031Z,99.90
2024-01-11T16:19:35.009Z,99.90
2024-01-11T16:22:05.525Z,99.90
2024-01-11T16:24:33.915Z,99.90
2024-01-11T16:27:05.955Z,99.90
2024-01-11T16:29:34.503Z,99.90
2024-01-11T16:32:03.056Z,99.90
2024-01-11T16:34:32.612Z,99.90
2024-01-11T16:37:01.148Z,99.90
2024-01-11T16:39:31.572Z,99.90
2024-01-11T16:42:00.567Z,99.90
2024-01-11T16:44:29.573Z,99.90
2024-01-11T16:46:57.916Z,99.90
2024-01-11T16:49:26.306Z,99.90
2024-01-11T16:51:57.434Z,99.90
2024-01-11T16:54:25.888Z,99.90
2024-01-11T16:56:56.384Z,99.90
2024-01-11T16:59:28.136Z,99.90
2024-01-11T17:01:56.491Z,99.90
2024-01-11T17:04:24.954Z,99.90
2024-01-11T17:06:53.450Z,99.90
2024-01-11T17:09:21.795Z,99.90
2024-01-11T17:11:50.264Z,99.90
2024-01-11T17:14:19.873Z,99.90
2024-01-11T17:16:48.366Z,99.90
2024-01-11T17:19:16.604Z,99.90
2024-01-11T17:21:45.087Z,99.90
2024-01-11T17:24:13.451Z,99.90
2024-01-11T17:26:43.927Z,99.90
2024-01-11T17:29:12.273Z,99.90
2024-01-11T17:31:45.657Z,99.90
2024-01-11T17:34:14.166Z,99.90
2024-01-11T17:36:42.511Z,99.90
2024-01-11T17:39:12.163Z,99.90
2024-01-11T17:41:42.383Z,99.90
2024-01-11T17:44:11.275Z,99.90
2024-01-11T17:46:41.094Z,99.90
2024-01-11T17:49:10.192Z,99.90
2024-01-11T17:51:39.104Z,99.90
2024-01-11T17:54:07.482Z,99.90
2024-01-11T17:56:35.961Z,99.90
2024-01-11T17:59:06.413Z,99.90
2024-01-11T18:01:34.883Z,99.90
2024-01-11T18:05:24.184Z,99.90
2024-01-11T18:08:09.722Z,99.90
2024-01-11T18:10:38.790Z,99.90
2024-01-11T18:17:59.994Z,99.90
2024-01-11T18:22:03.984Z,99.90
2024-01-11T18:25:33.217Z,99.90
2024-01-11T18:33:35.447Z,99.90
2024-01-11T18:36:59.923Z,99.90
2024-01-11T18:47:25.357Z,99.90
2024-01-11T18:49:58.318Z,99.90
2024-01-11T18:50:10.021Z,99.90
2024-01-11T18:53:39.202Z,99.90
2024-01-11T18:57:37.787Z,99.90
2024-01-11T19:03:01.362Z,99.90
2024-01-11T19:05:09.200Z,99.90
2024-01-11T19:09:36.530Z,99.90
2024-01-11T19:13:18.072Z,99.90
2024-01-11T19:16:42.530Z,99.90
2024-01-11T19:19:43.936Z,99.90
2024-01-11T19:23:48.976Z,99.90
2024-01-11T19:38:48.370Z,99.90
2024-01-11T19:42:14.756Z,99.90
2024-01-11T19:49:00.344Z,99.90
2024-01-11T19:54:08.903Z,99.90
2024-01-11T19:58:43.272Z,99.90
2024-01-11T20:01:24.617Z,99.90
2024-01-11T20:04:48.269Z,99.90
2024-01-11T20:11:48.073Z,99.90
2024-01-11T20:19:14.375Z,99.90
2024-01-11T20:22:31.806Z,99.90
2024-01-11T20:26:31.804Z,99.90
2024-01-11T20:33:05.780Z,99.90
2024-01-11T20:40:18.625Z,99.90
2024-01-11T20:43:54.520Z,99.90
2024-01-11T20:47:08.009Z,99.90
2024-01-11T20:51:09.033Z,99.90
2024-01-11T20:54:34.810Z,99.90
2024-01-11T20:58:30.952Z,99.90
2024-01-11T21:10:24.659Z,99.90
2024-01-11T21:21:30.172Z,99.90
2024-01-11T21:28:57.816Z,99.90
2024-01-11T21:32:31.534Z,99.90
2024-01-11T21:35:43.277Z,99.90
2024-01-11T21:43:40.158Z,99.90
2024-01-11T21:48:20.916Z,99.90
2024-01-11T21:54:52.408Z,99.90
2024-01-11T21:58:28.019Z,99.90
2024-01-11T22:05:38.098Z,99.90
2024-01-11T22:12:19.269Z,99.90
2024-01-11T22:20:03.616Z,99.90
2024-01-11T22:23:45.560Z,99.90
2024-01-11T22:27:52.746Z,99.90
2024-01-11T22:30:58.294Z,99.90
2024-01-11T22:34:24.638Z,99.90
2024-01-11T22:45:19.150Z,99.90
2024-01-11T22:49:06.454Z,99.90
2024-01-11T22:56:51.515Z,99.90
2024-01-11T23:03:54.300Z,99.90
2024-01-11T23:07:17.005Z,99.90
2024-01-11T23:15:14.291Z,99.90
2024-01-11T23:25:43.581Z,99.90
2024-01-11T23:28:58.056Z,99.90
2024-01-11T23:32:27.907Z,99.90
